TimeEST,TemperatureF,Dew PointF,Humidity,Sea Level PressureIn,VisibilityMPH,Wind Direction,Wind SpeedMPH,Gust SpeedMPH,PrecipitationIn,Events,Conditions,WindDirDegrees,DateUTC
12:15 AM,28.0,16.3,62,30.27,10.0,Calm,Calm,-,N/A,,Clear,0,2014-01-01 05:15:00
12:35 AM,27.3,16.3,63,30.27,10.0,Calm,Calm,-,N/A,,Clear,0,2014-01-01 05:35:00
12:55 AM,27.0,16.2,64,30.26,10.0,Calm,Calm,-,N/A,,Clear,0,2014-01-01 05:55:00
1:15 AM,25.7,16.9,69,30.27,10.0,Calm,Calm,-,N/A,,Clear,0,2014-01-01 06:15:00
1:35 AM,26.8,16.7,66,30.27,10.0,Calm,Calm,-,N/A,,Clear,0,2014-01-01 06:35:00
1:55 AM,25.7,16.9,69,30.27,10.0,Calm,Calm,-,N/A,,Clear,0,2014-01-01 06:55:00
2:15 AM,25.7,16.7,69,30.27,10.0,Calm,Calm,-,N/A,,Clear,0,2014-01-01 07:15:00
2:35 AM,25.9,16.7,68,30.27,10.0,Calm,Calm,-,N/A,,Clear,0,2014-01-01 07:35:00
2:55 AM,26.4,16.7,67,30.27,10.0,SW,5.8,-,N/A,,Clear,230,2014-01-01 07:55:00
3:15 AM,26.6,16.7,66,30.27,10.0,SSW,3.5,-,N/A,,Clear,200,2014-01-01 08:15:00
3:35 AM,26.8,16.3,65,30.27,10.0,WSW,3.5,-,N/A,,Clear,240,2014-01-01 08:35:00
3:55 AM,26.6,16.3,65,30.27,10.0,Calm,Calm,-,N/A,,Clear,0,2014-01-01 08:55:00
4:15 AM,27.0,16.2,64,30.27,10.0,Calm,Calm,-,N/A,,Clear,0,2014-01-01 09:15:00
4:35 AM,28.2,15.6,59,30.27,10.0,Calm,Calm,-,N/A,,Clear,0,2014-01-01 09:35:00
4:55 AM,25.7,16.5,68,30.27,10.0,Calm,Calm,-,N/A,,Clear,0,2014-01-01 09:55:00
5:15 AM,25.0,16.7,71,30.27,10.0,SSW,3.5,-,N/A,,Clear,210,2014-01-01 10:15:00
5:35 AM,24.8,16.0,69,30.26,10.0,Calm,Calm,-,N/A,,Clear,0,2014-01-01 10:35:00
5:55 AM,24.4,16.3,71,30.26,10.0,Calm,Calm,-,N/A,,Clear,0,2014-01-01 10:55:00
6:15 AM,25.0,16.2,69,30.27,10.0,Calm,Calm,-,N/A,,Clear,0,2014-01-01 11:15:00
6:35 AM,24.3,16.7,73,30.26,10.0,Calm,Calm,-,N/A,,Clear,0,2014-01-01 11:35:00
6:55 AM,24.8,16.5,71,30.26,10.0,Calm,Calm,-,N/A,,Clear,0,2014-01-01 11:55:00
7:15 AM,25.2,15.6,67,30.26,10.0,South,3.5,-,N/A,,Clear,170,2014-01-01 12:15:00
7:35 AM,28.2,14.9,57,30.26,10.0,SSE,3.5,-,N/A,,Clear,160,2014-01-01 12:35:00
7:55 AM,25.7,15.6,66,30.26,10.0,Calm,Calm,-,N/A,,Clear,0,2014-01-01 12:55:00
8:15 AM,25.2,16.0,68,30.27,10.0,Calm,Calm,-,N/A,,Clear,0,2014-01-01 13:15:00
8:35 AM,28.8,14.0,54,30.27,10.0,Calm,Calm,-,N/A,,Clear,0,2014-01-01 13:35:00
8:55 AM,23.5,17.4,77,30.27,10.0,Calm,Calm,-,N/A,,Clear,0,2014-01-01 13:55:00
9:15 AM,28.9,14.9,56,30.27,10.0,Calm,Calm,-,N/A,,Clear,0,2014-01-01 14:15:00
9:35 AM,28.8,20.7,72,30.28,10.0,Calm,Calm,-,N/A,,Clear,0,2014-01-01 14:35:00
9:55 AM,28.8,18.5,66,30.27,10.0,Calm,Calm,-,N/A,,Clear,0,2014-01-01 14:55:00
10:15 AM,32.2,17.6,55,30.27,10.0,Calm,Calm,-,N/A,,Clear,0,2014-01-01 15:15:00
10:35 AM,32.4,20.5,62,30.27,10.0,Calm,Calm,-,N/A,,Clear,0,2014-01-01 15:35:00
10:55 AM,34.9,18.7,52,30.26,10.0,SSE,4.6,-,N/A,,Clear,150,2014-01-01 15:55:00
11:15 AM,36.5,17.8,47,30.26,10.0,SSE,4.6,-,N/A,,Clear,160,2014-01-01 16:15:00
11:35 AM,37.9,17.6,44,30.25,10.0,SSE,4.6,-,N/A,,Clear,160,2014-01-01 16:35:00
11:55 AM,38.7,17.6,43,30.24,10.0,Calm,Calm,-,N/A,,Clear,0,2014-01-01 16:55:00
12:15 PM,39.2,18.0,42,30.22,10.0,SSE,4.6,-,N/A,,Clear,160,2014-01-01 17:15:00
12:35 PM,39.6,18.1,42,30.21,10.0,SSE,5.8,-,N/A,,Clear,150,2014-01-01 17:35:00
12:55 PM,40.1,18.0,41,30.20,10.0,SSE,6.9,-,N/A,,Clear,160,2014-01-01 17:55:00
1:15 PM,42.3,18.7,39,30.19,10.0,South,5.8,-,N/A,,Clear,170,2014-01-01 18:15:00
1:35 PM,41.7,18.9,40,30.18,10.0,SSE,5.8,-,N/A,,Clear,160,2014-01-01 18:35:00
1:55 PM,41.9,18.9,40,30.17,10.0,SSE,8.1,-,N/A,,Clear,150,2014-01-01 18:55:00
2:15 PM,41.5,18.5,40,30.16,10.0,SSE,5.8,-,N/A,,Clear,150,2014-01-01 19:15:00
2:35 PM,41.5,19.2,41,30.16,10.0,South,3.5,-,N/A,,Clear,170,2014-01-01 19:35:00
2:55 PM,40.5,19.2,43,30.16,10.0,SSE,6.9,-,N/A,,Clear,150,2014-01-01 19:55:00
3:15 PM,40.3,19.0,43,30.16,10.0,SE,4.6,-,N/A,,Clear,140,2014-01-01 20:15:00
3:35 PM,39.7,18.3,42,30.16,10.0,SSE,4.6,-,N/A,,Clear,160,2014-01-01 20:35:00
3:55 PM,39.2,18.5,43,30.15,10.0,SSE,4.6,-,N/A,,Clear,160,2014-01-01 20:55:00
4:15 PM,37.9,19.2,47,30.15,10.0,Calm,Calm,-,N/A,,Clear,0,2014-01-01 21:15:00
4:35 PM,37.6,19.8,49,30.15,10.0,Calm,Calm,-,N/A,,Clear,0,2014-01-01 21:35:00
4:55 PM,36.0,19.9,52,30.15,10.0,SSE,3.5,-,N/A,,Clear,160,2014-01-01 21:55:00
5:15 PM,34.9,19.9,55,30.15,10.0,SSE,3.5,-,N/A,,Clear,150,2014-01-01 22:15:00
5:35 PM,34.2,19.9,56,30.15,10.0,Calm,Calm,-,N/A,,Clear,0,2014-01-01 22:35:00
5:55 PM,32.9,20.3,60,30.14,10.0,Calm,Calm,-,N/A,,Clear,0,2014-01-01 22:55:00
6:15 PM,32.4,20.3,61,30.14,10.0,South,3.5,-,N/A,,Clear,170,2014-01-01 23:15:00
6:35 PM,32.0,20.5,63,30.14,10.0,Calm,Calm,-,N/A,,Clear,0,2014-01-01 23:35:00
6:55 PM,32.0,21.0,64,30.14,10.0,Calm,Calm,-,N/A,,Clear,0,2014-01-01 23:55:00
7:15 PM,32.0,21.0,64,30.14,10.0,SSE,3.5,-,N/A,,Clear,160,2014-01-02 00:15:00
7:35 PM,32.0,21.0,64,30.13,10.0,SSE,3.5,-,N/A,,Clear,160,2014-01-02 00:35:00
7:55 PM,31.5,21.0,65,30.12,10.0,SSE,3.5,-,N/A,,Clear,160,2014-01-02 00:55:00
8:15 PM,31.5,21.2,66,30.12,10.0,Calm,Calm,-,N/A,,Clear,0,2014-01-02 01:15:00
8:35 PM,32.0,21.2,64,30.12,10.0,Calm,Calm,-,N/A,,Clear,0,2014-01-02 01:35:00
8:55 PM,31.8,21.2,65,30.11,10.0,Calm,Calm,-,N/A,,Clear,0,2014-01-02 01:55:00
9:15 PM,32.0,21.2,64,30.11,10.0,Calm,Calm,-,N/A,,Clear,0,2014-01-02 02:15:00
9:35 PM,31.8,21.4,65,30.10,10.0,Calm,Calm,-,N/A,,Clear,0,2014-01-02 02:35:00
9:55 PM,32.0,21.6,65,30.09,10.0,Calm,Calm,-,N/A,,Clear,0,2014-01-02 02:55:00
10:15 PM,31.8,21.6,66,30.09,10.0,Calm,Calm,-,N/A,,Clear,0,2014-01-02 03:15:00
10:35 PM,31.1,21.6,68,30.08,10.0,Calm,Calm,-,N/A,,Clear,0,2014-01-02 03:35:00
10:55 PM,31.3,21.2,66,30.07,10.0,Calm,Calm,-,N/A,,Clear,0,2014-01-02 03:55:00
11:15 PM,30.9,21.2,67,30.06,10.0,Calm,Calm,-,N/A,,Clear,0,2014-01-02 04:15:00
11:35 PM,30.2,21.6,70,30.06,10.0,Calm,Calm,-,N/A,,Clear,0,2014-01-02 04:35:00
11:55 PM,30.2,21.7,71,30.06,10.0,Calm,Calm,-,N/A,,Clear,0,2014-01-02 04:55:00